PWSweather.com
Personal Weather Stations
Station Observations
KWABLAIN13
Ptl Weather, Blaine, WA

Ptl WeatherBlaine, WA

Lat: 48.997393, Lon: -122.748614

Elevation: 57

Station Type: Davis Advantage Pro 2

http://www.ptlnet.net

Latest ConditionsUpdated 6:04:57 PM PST Thursday, Dec 13, 2018
Currently Today's Max Today's Min Today's Average
Temperature 50.4°F10.2°C 50.4°F10.2°C 44.1°F6.7°C 46.2°F7.9°C
Dew Point 44.8°F7.1°C 45.2°F7.3°C 41.6°F5.3°C 43.8°F6.6°C
Winds 11.0 mph SE17.7 kmh SE 26.0 mph -41.8 kmh - - 9.6 mph 15.4 kmh
Wind Gusts 22.0 mph35.4 kmh 31.0 mph49.9 kmh - -
Humidity 81% 96% 81% 91%
Pressure 29.87 in1011.5 mb 30.00 in1015.9 mb 29.87 in1011.5 mb -
Hour Temp Dew Point Humidity Winds Wind Gusts Pressure Precip Precip Rate Daily Precip Total
06:04 PM 50.4°F10.2°C 44.8°F7.1°C 81% 11.0 mph SE17.7 kmh SE 22.0 mph35.4 kmh 29.87 in1011.5 mb 0.00 in0.0 mm 0.00 in0.0 mm 0.39 in9.9 mm
05:50 PM 50.2°F10.1°C 44.9°F7.2°C 82% 9.0 mph SE14.5 kmh SE 21.0 mph33.8 kmh 29.88 in1011.9 mb 0.00 in0.0 mm 0.00 in0.0 mm 0.39 in9.9 mm
05:45 PM 50.0°F10.0°C 44.7°F7.1°C 82% 17.0 mph SE27.4 kmh SE 20.0 mph32.2 kmh 29.88 in1011.9 mb 0.00 in0.0 mm 0.00 in0.0 mm 0.39 in9.9 mm
05:30 PM 49.8°F9.9°C 44.9°F7.2°C 83% 7.0 mph SE11.3 kmh SE 18.0 mph29.0 kmh 29.89 in1012.2 mb 0.00 in0.0 mm 0.00 in0.0 mm 0.39 in9.9 mm
05:25 PM 49.6°F9.8°C 44.7°F7.1°C 83% 6.0 mph ESE9.7 kmh ESE 18.0 mph29.0 kmh 29.89 in1012.2 mb 0.00 in0.0 mm 0.00 in0.0 mm 0.39 in9.9 mm
05:10 PM 49.4°F9.7°C 45.1°F7.3°C 85% 6.0 mph SE9.7 kmh SE 18.0 mph29.0 kmh 29.90 in1012.5 mb 0.00 in0.0 mm 0.00 in0.0 mm 0.39 in9.9 mm
05:05 PM 49.5°F9.7°C 45.2°F7.3°C 85% 12.0 mph SE19.3 kmh SE 18.0 mph29.0 kmh 29.90 in1012.5 mb 0.00 in0.0 mm 0.00 in0.0 mm 0.39 in9.9 mm
04:49 PM 50.0°F10.0°C 45.1°F7.3°C 83% 15.0 mph S24.1 kmh S 20.0 mph32.2 kmh 29.91 in1012.9 mb 0.00 in0.0 mm 0.00 in0.0 mm 0.39 in9.9 mm
04:45 PM 50.0°F10.0°C 44.7°F7.1°C 82% 12.0 mph SE19.3 kmh SE 20.0 mph32.2 kmh 29.91 in1012.9 mb 0.00 in0.0 mm 0.00 in0.0 mm 0.39 in9.9 mm
04:29 PM 49.8°F9.9°C 44.5°F6.9°C 82% 6.0 mph SE9.7 kmh SE 21.0 mph33.8 kmh 29.91 in1012.9 mb 0.00 in0.0 mm 0.00 in0.0 mm 0.39 in9.9 mm
04:25 PM 49.7°F9.8°C 44.4°F6.9°C 82% 14.0 mph SE22.5 kmh SE 18.0 mph29.0 kmh 29.91 in1012.9 mb 0.00 in0.0 mm 0.00 in0.0 mm 0.39 in9.9 mm
04:10 PM 49.4°F9.7°C 44.5°F6.9°C 83% 17.0 mph SE27.4 kmh SE 26.0 mph41.8 kmh 29.90 in1012.5 mb 0.00 in0.0 mm 0.00 in0.0 mm 0.39 in9.9 mm
04:05 PM 49.2°F9.6°C 44.6°F7.0°C 84% 4.0 mph SE6.4 kmh SE 26.0 mph41.8 kmh 29.90 in1012.5 mb 0.00 in0.0 mm 0.00 in0.0 mm 0.39 in9.9 mm
03:50 PM 49.0°F9.4°C 44.7°F7.1°C 85% 8.0 mph SSE12.9 kmh SSE 9.0 mph14.5 kmh 29.91 in1012.9 mb 0.00 in0.0 mm 0.00 in0.0 mm 0.39 in9.9 mm
03:45 PM 49.0°F9.4°C 44.7°F7.1°C 85% 15.0 mph SSE24.1 kmh SSE 21.0 mph33.8 kmh 29.91 in1012.9 mb 0.00 in0.0 mm 0.00 in0.0 mm 0.39 in9.9 mm
03:30 PM 49.0°F9.4°C 44.7°F7.1°C 85% 11.0 mph SSE17.7 kmh SSE 21.0 mph33.8 kmh 29.91 in1012.9 mb 0.00 in0.0 mm 0.00 in0.0 mm 0.39 in9.9 mm
03:24 PM 48.9°F9.4°C 44.6°F7.0°C 85% 7.0 mph SE11.3 kmh SE 21.0 mph33.8 kmh 29.91 in1012.9 mb 0.00 in0.0 mm 0.00 in0.0 mm 0.39 in9.9 mm
03:10 PM 48.8°F9.3°C 44.8°F7.1°C 86% 8.0 mph SSE12.9 kmh SSE 26.0 mph41.8 kmh 29.92 in1013.2 mb 0.00 in0.0 mm 0.00 in0.0 mm 0.39 in9.9 mm
03:05 PM 48.8°F9.3°C 44.8°F7.1°C 86% 12.0 mph SSE19.3 kmh SSE 17.0 mph27.4 kmh 29.91 in1012.9 mb 0.00 in0.0 mm 0.00 in0.0 mm 0.39 in9.9 mm
02:49 PM 48.6°F9.2°C 44.6°F7.0°C 86% 11.0 mph ESE17.7 kmh ESE 16.0 mph25.7 kmh 29.91 in1012.9 mb 0.00 in0.0 mm 0.00 in0.0 mm 0.39 in9.9 mm
02:45 PM 48.5°F9.2°C 44.8°F7.1°C 87% 3.0 mph SE4.8 kmh SE 15.0 mph24.1 kmh 29.91 in1012.9 mb 0.00 in0.0 mm 0.00 in0.0 mm 0.39 in9.9 mm
02:29 PM 48.2°F9.0°C 44.8°F7.1°C 88% 8.0 mph SSE12.9 kmh SSE 17.0 mph27.4 kmh 29.92 in1013.2 mb 0.00 in0.0 mm 0.00 in0.0 mm 0.39 in9.9 mm
02:25 PM 48.0°F8.9°C 44.6°F7.0°C 88% 12.0 mph SE19.3 kmh SE 14.0 mph22.5 kmh 29.92 in1013.2 mb 0.00 in0.0 mm 0.00 in0.0 mm 0.39 in9.9 mm
02:09 PM 47.7°F8.7°C 45.2°F7.3°C 91% 7.0 mph ESE11.3 kmh ESE 15.0 mph24.1 kmh 29.93 in1013.5 mb 0.01 in0.3 mm 0.00 in0.0 mm 0.39 in9.9 mm
02:05 PM 47.6°F8.7°C 44.8°F7.1°C 90% 6.0 mph S9.7 kmh S 6.0 mph9.7 kmh 29.93 in1013.5 mb 0.01 in0.3 mm 0.00 in0.0 mm 0.39 in9.9 mm
01:50 PM 47.5°F8.6°C 45.0°F7.2°C 91% 10.0 mph SE16.1 kmh SE 31.0 mph49.9 kmh 29.93 in1013.5 mb 0.02 in0.5 mm 0.00 in0.0 mm 0.39 in9.9 mm
01:45 PM 47.3°F8.5°C 44.8°F7.1°C 91% 12.0 mph SSE19.3 kmh SSE 31.0 mph49.9 kmh 29.93 in1013.5 mb 0.02 in0.5 mm 0.00 in0.0 mm 0.39 in9.9 mm
01:30 PM 46.9°F8.3°C 45.0°F7.2°C 93% 6.0 mph SE9.7 kmh SE 6.0 mph9.7 kmh 29.94 in1013.9 mb 0.02 in0.5 mm 0.00 in0.0 mm 0.39 in9.9 mm
01:25 PM 46.8°F8.2°C 44.9°F7.2°C 93% 7.0 mph SE11.3 kmh SE 13.0 mph20.9 kmh 29.94 in1013.9 mb 0.03 in0.8 mm 0.00 in0.0 mm 0.39 in9.9 mm
01:10 PM 46.8°F8.2°C 44.9°F7.2°C 93% 6.0 mph SSE9.7 kmh SSE 6.0 mph9.7 kmh 29.94 in1013.9 mb 0.03 in0.8 mm 0.12 in3.0 mm 0.39 in9.9 mm
01:05 PM 46.7°F8.2°C 44.8°F7.1°C 93% 5.0 mph SE8.0 kmh SE 15.0 mph24.1 kmh 29.94 in1013.9 mb 0.02 in0.5 mm 0.00 in0.0 mm 0.38 in9.7 mm
12:50 PM 46.7°F8.2°C 44.8°F7.1°C 93% 9.0 mph SE14.5 kmh SE 17.0 mph27.4 kmh 29.94 in1013.9 mb 0.03 in0.8 mm 0.00 in0.0 mm 0.38 in9.7 mm
12:45 PM 46.7°F8.2°C 44.8°F7.1°C 93% 8.0 mph SE12.9 kmh SE 17.0 mph27.4 kmh 29.94 in1013.9 mb 0.03 in0.8 mm 0.00 in0.0 mm 0.38 in9.7 mm
12:30 PM 46.7°F8.2°C 44.8°F7.1°C 93% 7.0 mph SE11.3 kmh SE 19.0 mph30.6 kmh 29.94 in1013.9 mb 0.06 in1.5 mm 0.12 in3.0 mm 0.38 in9.7 mm
12:25 PM 46.7°F8.2°C 44.8°F7.1°C 93% 14.0 mph SE22.5 kmh SE 19.0 mph30.6 kmh 29.94 in1013.9 mb 0.05 in1.3 mm 0.00 in0.0 mm 0.37 in9.4 mm
12:10 PM 46.7°F8.2°C 44.8°F7.1°C 93% 11.0 mph SE17.7 kmh SE 19.0 mph30.6 kmh 29.95 in1014.2 mb 0.06 in1.5 mm 0.00 in0.0 mm 0.37 in9.4 mm
12:05 PM 46.6°F8.1°C 44.7°F7.1°C 93% 7.0 mph SE11.3 kmh SE 19.0 mph30.6 kmh 29.95 in1014.2 mb 0.06 in1.5 mm 0.00 in0.0 mm 0.37 in9.4 mm
11:50 AM 46.7°F8.2°C 44.8°F7.1°C 93% 7.0 mph E11.3 kmh E 13.0 mph20.9 kmh 29.96 in1014.6 mb 0.06 in1.5 mm 0.12 in3.0 mm 0.37 in9.4 mm
11:45 AM 46.7°F8.2°C 44.8°F7.1°C 93% 2.0 mph ESE3.2 kmh ESE 13.0 mph20.9 kmh 29.97 in1014.9 mb 0.05 in1.3 mm 0.04 in1.0 mm 0.36 in9.1 mm
11:30 AM 46.8°F8.2°C 45.2°F7.3°C 94% 5.0 mph SE8.0 kmh SE 12.0 mph19.3 kmh 29.98 in1015.2 mb 0.04 in1.0 mm 0.12 in3.0 mm 0.35 in8.9 mm
11:25 AM 46.8°F8.2°C 44.9°F7.2°C 93% 6.0 mph SE9.7 kmh SE 12.0 mph19.3 kmh 29.98 in1015.2 mb 0.03 in0.8 mm 0.00 in0.0 mm 0.34 in8.6 mm
11:09 AM 46.8°F8.2°C 44.9°F7.2°C 93% 5.0 mph SE8.0 kmh SE 14.0 mph22.5 kmh 29.98 in1015.2 mb 0.05 in1.3 mm 0.00 in0.0 mm 0.34 in8.6 mm
11:05 AM 46.7°F8.2°C 45.1°F7.3°C 94% 7.0 mph SE11.3 kmh SE 14.0 mph22.5 kmh 29.98 in1015.2 mb 0.05 in1.3 mm 0.00 in0.0 mm 0.34 in8.6 mm
10:50 AM 46.6°F8.1°C 45.0°F7.2°C 94% 13.0 mph SE20.9 kmh SE 23.0 mph37.0 kmh 29.98 in1015.2 mb 0.06 in1.5 mm 0.00 in0.0 mm 0.34 in8.6 mm
10:45 AM 46.5°F8.1°C 44.9°F7.2°C 94% 15.0 mph SE24.1 kmh SE 23.0 mph37.0 kmh 29.98 in1015.2 mb 0.06 in1.5 mm 0.00 in0.0 mm 0.34 in8.6 mm
10:30 AM 46.3°F7.9°C 45.0°F7.2°C 95% 9.0 mph ESE14.5 kmh ESE 10.0 mph16.1 kmh 29.99 in1015.6 mb 0.06 in1.5 mm 0.00 in0.0 mm 0.34 in8.6 mm
10:25 AM 46.3°F7.9°C 45.0°F7.2°C 95% 7.0 mph SE11.3 kmh SE 17.0 mph27.4 kmh 29.99 in1015.6 mb 0.07 in1.8 mm 0.04 in1.0 mm 0.34 in8.6 mm
10:10 AM 46.1°F7.8°C 44.8°F7.1°C 95% 8.0 mph S12.9 kmh S 9.0 mph14.5 kmh 30.00 in1015.9 mb 0.06 in1.5 mm 0.00 in0.0 mm 0.33 in8.4 mm
10:05 AM 46.1°F7.8°C 44.8°F7.1°C 95% 9.0 mph SSE14.5 kmh SSE 15.0 mph24.1 kmh 30.00 in1015.9 mb 0.06 in1.5 mm 0.00 in0.0 mm 0.33 in8.4 mm
09:50 AM 46.0°F7.8°C 44.7°F7.1°C 95% 18.0 mph SE29.0 kmh SE 24.0 mph38.6 kmh 29.99 in1015.6 mb 0.07 in1.8 mm 0.00 in0.0 mm 0.33 in8.4 mm
09:44 AM 45.9°F7.7°C 44.6°F7.0°C 95% 12.0 mph S19.3 kmh S 15.0 mph24.1 kmh 29.98 in1015.2 mb 0.07 in1.8 mm 0.00 in0.0 mm 0.33 in8.4 mm
09:30 AM 45.8°F7.7°C 44.5°F6.9°C 95% 3.0 mph SE4.8 kmh SE 20.0 mph32.2 kmh 29.99 in1015.6 mb 0.07 in1.8 mm 0.12 in3.0 mm 0.33 in8.4 mm
09:25 AM 45.8°F7.7°C 44.5°F6.9°C 95% 15.0 mph SSE24.1 kmh SSE 16.0 mph25.7 kmh 29.99 in1015.6 mb 0.06 in1.5 mm 0.00 in0.0 mm 0.32 in8.1 mm
09:10 AM 45.6°F7.6°C 44.3°F6.8°C 95% 10.0 mph SE16.1 kmh SE 11.0 mph17.7 kmh 29.98 in1015.2 mb 0.07 in1.8 mm 0.00 in0.0 mm 0.32 in8.1 mm
09:05 AM 45.6°F7.6°C 44.3°F6.8°C 95% 8.0 mph SE12.9 kmh SE 8.0 mph12.9 kmh 29.99 in1015.6 mb 0.07 in1.8 mm 0.00 in0.0 mm 0.32 in8.1 mm
08:50 AM 45.5°F7.5°C 44.4°F6.9°C 96% 9.0 mph S14.5 kmh S 16.0 mph25.7 kmh 29.99 in1015.6 mb 0.09 in2.3 mm 0.10 in2.5 mm 0.32 in8.1 mm
08:44 AM 45.4°F7.4°C 44.3°F6.8°C 96% 8.0 mph SE12.9 kmh SE 15.0 mph24.1 kmh 29.98 in1015.2 mb 0.08 in2.0 mm 0.00 in0.0 mm 0.31 in7.9 mm
08:30 AM 45.2°F7.3°C 44.1°F6.7°C 96% 18.0 mph SE29.0 kmh SE 18.0 mph29.0 kmh 29.98 in1015.2 mb 0.10 in2.5 mm 0.00 in0.0 mm 0.31 in7.9 mm
08:25 AM 45.1°F7.3°C 44.0°F6.7°C 96% 17.0 mph SSE27.4 kmh SSE 17.0 mph27.4 kmh 29.98 in1015.2 mb 0.10 in2.5 mm 0.00 in0.0 mm 0.31 in7.9 mm
08:10 AM 45.0°F7.2°C 43.9°F6.6°C 96% 9.0 mph SE14.5 kmh SE 16.0 mph25.7 kmh 29.98 in1015.2 mb 0.11 in2.8 mm 0.12 in3.0 mm 0.31 in7.9 mm
08:05 AM 45.0°F7.2°C 43.9°F6.6°C 96% 14.0 mph SSE22.5 kmh SSE 16.0 mph25.7 kmh 29.98 in1015.2 mb 0.10 in2.5 mm 0.00 in0.0 mm 0.30 in7.6 mm
07:49 AM 44.9°F7.2°C 43.8°F6.6°C 96% 5.0 mph S8.0 kmh S 13.0 mph20.9 kmh 29.98 in1015.2 mb 0.12 in3.0 mm 0.15 in3.8 mm 0.30 in7.6 mm
07:45 AM 44.9°F7.2°C 43.8°F6.6°C 96% 7.0 mph ESE11.3 kmh ESE 13.0 mph20.9 kmh 29.98 in1015.2 mb 0.11 in2.8 mm 0.00 in0.0 mm 0.29 in7.4 mm
07:29 AM 44.8°F7.1°C 43.5°F6.4°C 95% 8.0 mph SE12.9 kmh SE 20.0 mph32.2 kmh 29.97 in1014.9 mb 0.15 in3.8 mm 0.15 in3.8 mm 0.29 in7.4 mm
07:25 AM 44.7°F7.1°C 43.4°F6.3°C 95% 14.0 mph SE22.5 kmh SE 18.0 mph29.0 kmh 29.97 in1014.9 mb 0.14 in3.6 mm 0.00 in0.0 mm 0.28 in7.1 mm
07:10 AM 44.7°F7.1°C 43.4°F6.3°C 95% 10.0 mph SE16.1 kmh SE 10.0 mph16.1 kmh 29.97 in1014.9 mb 0.14 in3.6 mm 0.00 in0.0 mm 0.28 in7.1 mm
07:05 AM 44.7°F7.1°C 43.4°F6.3°C 95% 6.0 mph SSW9.7 kmh SSW 20.0 mph32.2 kmh 29.97 in1014.9 mb 0.15 in3.8 mm 0.00 in0.0 mm 0.28 in7.1 mm
06:49 AM 44.7°F7.1°C 43.4°F6.3°C 95% 9.0 mph SE14.5 kmh SE 19.0 mph30.6 kmh 29.97 in1014.9 mb 0.17 in4.3 mm 0.15 in3.8 mm 0.28 in7.1 mm
06:45 AM 44.7°F7.1°C 43.4°F6.3°C 95% 10.0 mph SE16.1 kmh SE 19.0 mph30.6 kmh 29.97 in1014.9 mb 0.16 in4.1 mm 0.00 in0.0 mm 0.27 in6.9 mm
06:30 AM 44.6°F7.0°C 43.3°F6.3°C 95% 5.0 mph SE8.0 kmh SE 17.0 mph27.4 kmh 29.97 in1014.9 mb 0.16 in4.1 mm 0.24 in6.1 mm 0.27 in6.9 mm
06:25 AM 44.6°F7.0°C 43.3°F6.3°C 95% 12.0 mph SE19.3 kmh SE 13.0 mph20.9 kmh 29.97 in1014.9 mb 0.14 in3.6 mm 0.00 in0.0 mm 0.25 in6.4 mm
06:10 AM 44.5°F6.9°C 43.2°F6.2°C 95% 4.0 mph SE6.4 kmh SE 17.0 mph27.4 kmh 29.96 in1014.6 mb 0.17 in4.3 mm 0.12 in3.0 mm 0.25 in6.4 mm
06:05 AM 44.5°F6.9°C 43.2°F6.2°C 95% 6.0 mph SE9.7 kmh SE 17.0 mph27.4 kmh 29.96 in1014.6 mb 0.16 in4.1 mm 0.00 in0.0 mm 0.24 in6.1 mm
05:50 AM 44.5°F6.9°C 43.2°F6.2°C 95% 10.0 mph SE16.1 kmh SE 16.0 mph25.7 kmh 29.96 in1014.6 mb 0.17 in4.3 mm 0.12 in3.0 mm 0.24 in6.1 mm
05:45 AM 44.5°F6.9°C 43.2°F6.2°C 95% 7.0 mph ESE11.3 kmh ESE 16.0 mph25.7 kmh 29.95 in1014.2 mb 0.16 in4.1 mm 0.00 in0.0 mm 0.23 in5.8 mm
05:30 AM 44.5°F6.9°C 43.2°F6.2°C 95% 8.0 mph S12.9 kmh S 20.0 mph32.2 kmh 29.95 in1014.2 mb 0.16 in4.1 mm 0.12 in3.0 mm 0.23 in5.8 mm
05:25 AM 44.5°F6.9°C 43.2°F6.2°C 95% 5.0 mph SSE8.0 kmh SSE 14.0 mph22.5 kmh 29.95 in1014.2 mb 0.15 in3.8 mm 0.00 in0.0 mm 0.22 in5.6 mm
05:10 AM 44.4°F6.9°C 43.1°F6.2°C 95% 9.0 mph SE14.5 kmh SE 22.0 mph35.4 kmh 29.96 in1014.6 mb 0.16 in4.1 mm 0.12 in3.0 mm 0.22 in5.6 mm
05:05 AM 44.4°F6.9°C 43.1°F6.2°C 95% 9.0 mph SE14.5 kmh SE 22.0 mph35.4 kmh 29.95 in1014.2 mb 0.15 in3.8 mm 0.00 in0.0 mm 0.21 in5.3 mm
04:50 AM 44.2°F6.8°C 42.6°F5.9°C 94% 12.0 mph S19.3 kmh S 25.0 mph40.2 kmh 29.95 in1014.2 mb 0.16 in4.1 mm 0.12 in3.0 mm 0.21 in5.3 mm
04:45 AM 44.2°F6.8°C 42.6°F5.9°C 94% 5.0 mph SE8.0 kmh SE 25.0 mph40.2 kmh 29.95 in1014.2 mb 0.15 in3.8 mm 0.00 in0.0 mm 0.20 in5.1 mm
04:29 AM 44.2°F6.8°C 42.6°F5.9°C 94% 11.0 mph SE17.7 kmh SE 22.0 mph35.4 kmh 29.95 in1014.2 mb 0.18 in4.6 mm 0.15 in3.8 mm 0.20 in5.1 mm
04:25 AM 44.2°F6.8°C 42.6°F5.9°C 94% 7.0 mph S11.3 kmh S 21.0 mph33.8 kmh 29.95 in1014.2 mb 0.17 in4.3 mm 0.04 in1.0 mm 0.19 in4.8 mm
04:10 AM 44.1°F6.7°C 42.5°F5.8°C 94% 17.0 mph SSE27.4 kmh SSE 19.0 mph30.6 kmh 29.95 in1014.2 mb 0.16 in4.1 mm 0.24 in6.1 mm 0.18 in4.6 mm
04:05 AM 44.1°F6.7°C 42.5°F5.8°C 94% 7.0 mph SE11.3 kmh SE 15.0 mph24.1 kmh 29.95 in1014.2 mb 0.14 in3.6 mm 0.03 in0.8 mm 0.16 in4.1 mm
03:50 AM 44.2°F6.8°C 42.6°F5.9°C 94% 16.0 mph SSE25.7 kmh SSE 21.0 mph33.8 kmh 29.95 in1014.2 mb 0.12 in3.0 mm 0.12 in3.0 mm 0.14 in3.6 mm
03:45 AM 44.2°F6.8°C 42.6°F5.9°C 94% 5.0 mph SSE8.0 kmh SSE 21.0 mph33.8 kmh 29.95 in1014.2 mb 0.11 in2.8 mm 0.04 in1.0 mm 0.13 in3.3 mm
03:30 AM 44.2°F6.8°C 42.3°F5.7°C 93% 11.0 mph SE17.7 kmh SE 24.0 mph38.6 kmh 29.95 in1014.2 mb 0.10 in2.5 mm 0.12 in3.0 mm 0.12 in3.0 mm
03:25 AM 44.2°F6.8°C 42.3°F5.7°C 93% 6.0 mph SSE9.7 kmh SSE 20.0 mph32.2 kmh 29.95 in1014.2 mb 0.09 in2.3 mm 0.08 in2.0 mm 0.11 in2.8 mm
03:10 AM 44.2°F6.8°C 42.3°F5.7°C 93% 7.0 mph SSE11.3 kmh SSE 12.0 mph19.3 kmh 29.95 in1014.2 mb 0.07 in1.8 mm 0.00 in0.0 mm 0.09 in2.3 mm
03:05 AM 44.2°F6.8°C 42.3°F5.7°C 93% 9.0 mph S14.5 kmh S 21.0 mph33.8 kmh 29.95 in1014.2 mb 0.07 in1.8 mm 0.03 in0.8 mm 0.09 in2.3 mm
02:50 AM 44.2°F6.8°C 42.0°F5.6°C 92% 9.0 mph SSE14.5 kmh SSE 26.0 mph41.8 kmh 29.95 in1014.2 mb 0.05 in1.3 mm 0.00 in0.0 mm 0.07 in1.8 mm
02:45 AM 44.2°F6.8°C 42.0°F5.6°C 92% 7.0 mph ESE11.3 kmh ESE 22.0 mph35.4 kmh 29.95 in1014.2 mb 0.05 in1.3 mm 0.08 in2.0 mm 0.07 in1.8 mm
02:30 AM 44.3°F6.8°C 42.1°F5.6°C 92% 14.0 mph S22.5 kmh S 21.0 mph33.8 kmh 29.95 in1014.2 mb 0.03 in0.8 mm 0.00 in0.0 mm 0.05 in1.3 mm
02:24 AM 44.3°F6.8°C 41.8°F5.4°C 91% 8.0 mph E12.9 kmh E 21.0 mph33.8 kmh 29.95 in1014.2 mb 0.03 in0.8 mm 0.08 in2.0 mm 0.05 in1.3 mm
02:09 AM 44.5°F6.9°C 41.8°F5.4°C 90% 10.0 mph SE16.1 kmh SE 29.0 mph46.7 kmh 29.94 in1013.9 mb 0.01 in0.3 mm 0.00 in0.0 mm 0.03 in0.8 mm
02:05 AM 44.6°F7.0°C 41.9°F5.5°C 90% 16.0 mph S25.7 kmh S 28.0 mph45.1 kmh 29.94 in1013.9 mb 0.01 in0.3 mm 0.01 in0.3 mm 0.03 in0.8 mm
01:50 AM 44.6°F7.0°C 41.6°F5.3°C 89% 14.0 mph ESE22.5 kmh ESE 14.0 mph22.5 kmh 29.93 in1013.5 mb 0.00 in0.0 mm 0.00 in0.0 mm 0.02 in0.5 mm
01:45 AM 44.6°F7.0°C 41.9°F5.5°C 90% 5.0 mph ESE8.0 kmh ESE 22.0 mph35.4 kmh 29.93 in1013.5 mb 0.01 in0.3 mm 0.00 in0.0 mm 0.02 in0.5 mm
01:30 AM 44.7°F7.1°C 42.0°F5.6°C 90% 9.0 mph SE14.5 kmh SE 15.0 mph24.1 kmh 29.93 in1013.5 mb 0.01 in0.3 mm 0.00 in0.0 mm 0.02 in0.5 mm
01:25 AM 44.8°F7.1°C 42.1°F5.6°C 90% 10.0 mph S16.1 kmh S 20.0 mph32.2 kmh 29.93 in1013.5 mb 0.01 in0.3 mm 0.00 in0.0 mm 0.02 in0.5 mm
01:10 AM 44.8°F7.1°C 41.8°F5.4°C 89% 10.0 mph SSE16.1 kmh SSE 13.0 mph20.9 kmh 29.93 in1013.5 mb 0.01 in0.3 mm 0.00 in0.0 mm 0.02 in0.5 mm
01:05 AM 44.9°F7.2°C 41.9°F5.5°C 89% 24.0 mph S38.6 kmh S 30.0 mph48.3 kmh 29.93 in1013.5 mb 0.01 in0.3 mm 0.00 in0.0 mm 0.02 in0.5 mm
12:50 AM 45.0°F7.2°C 42.0°F5.6°C 89% 12.0 mph SE19.3 kmh SE 29.0 mph46.7 kmh 29.93 in1013.5 mb 0.01 in0.3 mm 0.12 in3.0 mm 0.02 in0.5 mm
12:45 AM 45.0°F7.2°C 42.0°F5.6°C 89% 7.0 mph SE11.3 kmh SE 29.0 mph46.7 kmh 29.94 in1013.9 mb 0.00 in0.0 mm 0.00 in0.0 mm 0.01 in0.3 mm
12:29 AM 45.4°F7.4°C 42.1°F5.6°C 88% 14.0 mph E22.5 kmh E 24.0 mph38.6 kmh 29.94 in1013.9 mb 0.01 in0.3 mm 0.00 in0.0 mm 0.01 in0.3 mm
12:25 AM 45.4°F7.4°C 41.8°F5.4°C 87% 6.0 mph S9.7 kmh S 22.0 mph35.4 kmh 29.94 in1013.9 mb 0.01 in0.3 mm 0.00 in0.0 mm 0.01 in0.3 mm
12:10 AM 45.4°F7.4°C 42.1°F5.6°C 88% 26.0 mph SSE41.8 kmh SSE 26.0 mph41.8 kmh 29.95 in1014.2 mb 0.01 in0.3 mm 0.00 in0.0 mm 0.01 in0.3 mm
12:05 AM 45.4°F7.4°C 42.1°F5.6°C 88% 11.0 mph SE17.7 kmh SE 21.0 mph33.8 kmh 29.95 in1014.2 mb 0.01 in0.3 mm 0.12 in3.0 mm 0.01 in0.3 mm